createdAt,value
2019-01-27T00:01:08.598Z,108.03
2019-01-27T00:03:38.482Z,96.80
2019-01-27T00:06:07.629Z,108.67
2019-01-27T00:08:36.694Z,99.93
2019-01-27T00:11:05.759Z,101.73
2019-01-27T00:13:34.870Z,91.20
2019-01-27T00:16:03.931Z,106.97
2019-01-27T00:18:33.000Z,106.43
2019-01-27T00:21:02.103Z,109.33
2019-01-27T00:23:31.181Z,105.20
2019-01-27T00:26:00.248Z,98.03
2019-01-27T00:28:29.654Z,101.77
2019-01-27T00:30:58.734Z,97.63
2019-01-27T00:33:27.812Z,101.13
2019-01-27T00:35:57.249Z,109.13
2019-01-27T00:38:26.332Z,109.60
2019-01-27T00:40:55.405Z,104.50
2019-01-27T00:43:24.513Z,102.60
2019-01-27T00:45:53.588Z,114.23
2019-01-27T00:48:22.653Z,108.77
2019-01-27T00:50:51.786Z,109.33
2019-01-27T00:53:20.857Z,109.97
2019-01-27T00:55:49.934Z,102.43
2019-01-27T00:58:19.034Z,110.67
2019-01-27T01:00:48.119Z,90.23
2019-01-27T01:03:17.168Z,104.87
2019-01-27T01:05:46.274Z,98.87
2019-01-27T01:08:15.349Z,103.57
2019-01-27T01:10:44.418Z,103.60
2019-01-27T01:13:13.531Z,101.83
2019-01-27T01:15:42.599Z,105.03
2019-01-27T01:18:11.692Z,104.10
2019-01-27T01:20:40.793Z,93.30
2019-01-27T01:23:09.852Z,86.60
2019-01-27T01:25:38.924Z,92.00
2019-01-27T01:28:08.024Z,94.13
2019-01-27T01:30:37.109Z,97.07
2019-01-27T01:33:06.170Z,94.03
2019-01-27T01:35:35.305Z,93.83
2019-01-27T01:38:04.365Z,99.33
2019-01-27T01:40:33.457Z,108.30
2019-01-27T01:43:02.581Z,116.60
2019-01-27T01:45:31.646Z,98.53
2019-01-27T01:48:00.719Z,102.03
2019-01-27T01:50:29.812Z,98.27
2019-01-27T01:52:58.862Z,79.93
2019-01-27T01:55:27.940Z,92.10
2019-01-27T01:57:57.116Z,75.17
2019-01-27T02:00:26.144Z,74.07
2019-01-27T02:02:55.216Z,76.03
2019-01-27T02:05:24.354Z,81.13
2019-01-27T02:07:53.396Z,87.20
2019-01-27T02:10:22.573Z,86.17
2019-01-27T02:12:51.694Z,93.07
2019-01-27T02:15:21.566Z,76.00
2019-01-27T02:17:50.649Z,88.57
2019-01-27T02:20:19.771Z,91.47
2019-01-27T02:22:48.834Z,85.37
2019-01-27T02:25:17.904Z,89.23
2019-01-27T02:27:47.010Z,89.10
2019-01-27T02:30:16.428Z,104.97
2019-01-27T02:32:45.474Z,85.93
2019-01-27T02:35:14.576Z,89.73
2019-01-27T02:37:43.642Z,57.70
2019-01-27T02:40:12.696Z,88.70
2019-01-27T02:42:41.822Z,90.77
2019-01-27T02:45:12.765Z,58.57
2019-01-27T02:47:41.877Z,76.53
2019-01-27T02:50:11.069Z,81.20
2019-01-27T02:52:40.135Z,85.77
2019-01-27T02:55:09.194Z,89.67
2019-01-27T02:57:38.291Z,81.83
2019-01-27T03:00:08.269Z,80.43
2019-01-27T03:02:37.365Z,62.40
2019-01-27T03:05:06.527Z,74.20
2019-01-27T03:07:35.616Z,87.07
2019-01-27T03:10:04.666Z,75.47
2019-01-27T03:12:33.826Z,81.23
2019-01-27T03:15:02.883Z,75.40
2019-01-27T03:17:31.941Z,77.17
2019-01-27T03:20:01.022Z,80.33
2019-01-27T03:22:30.078Z,70.93
2019-01-27T03:24:59.154Z,70.63
2019-01-27T03:27:28.265Z,74.93
2019-01-27T03:29:57.335Z,74.57
2019-01-27T03:32:26.399Z,76.20
2019-01-27T03:34:55.501Z,70.30
2019-01-27T03:37:24.574Z,77.73
2019-01-27T03:39:53.662Z,74.73
2019-01-27T03:42:22.748Z,67.20
2019-01-27T03:44:51.823Z,73.80
2019-01-27T03:47:20.873Z,76.50
2019-01-27T03:49:50.113Z,81.13
2019-01-27T03:52:19.516Z,76.60
2019-01-27T03:54:48.519Z,70.67
2019-01-27T03:57:17.615Z,73.53
2019-01-27T03:59:46.681Z,73.93
2019-01-27T04:02:15.753Z,79.23
2019-01-27T04:04:44.885Z,70.10
2019-01-27T04:07:13.959Z,84.07
2019-01-27T04:09:43.031Z,72.33
2019-01-27T04:12:12.132Z,78.60
2019-01-27T04:14:41.203Z,72.63
2019-01-27T04:17:10.276Z,78.73
2019-01-27T04:19:39.376Z,72.77
2019-01-27T04:22:08.453Z,79.03
2019-01-27T04:24:37.871Z,87.07
2019-01-27T04:27:06.879Z,86.80
2019-01-27T04:29:35.945Z,94.97
2019-01-27T04:32:05.023Z,107.97
2019-01-27T04:34:34.122Z,93.33
2019-01-27T04:37:03.208Z,101.53
2019-01-27T04:39:32.271Z,101.00
2019-01-27T04:42:01.460Z,97.73
2019-01-27T04:44:30.532Z,102.47
2019-01-27T04:46:59.600Z,87.63
2019-01-27T04:49:28.717Z,100.70
2019-01-27T04:51:57.786Z,89.87
2019-01-27T04:54:26.847Z,99.40
2019-01-27T04:56:55.991Z,102.17
2019-01-27T04:59:25.065Z,89.17
2019-01-27T05:01:54.126Z,90.47
2019-01-27T05:04:23.221Z,82.20
2019-01-27T05:06:52.281Z,89.57
2019-01-27T05:09:22.185Z,93.03
2019-01-27T05:11:51.277Z,87.57
2019-01-27T05:14:20.340Z,73.33
2019-01-27T05:16:49.402Z,82.13
2019-01-27T05:19:18.521Z,78.20
2019-01-27T05:21:47.577Z,91.00
2019-01-27T05:24:16.646Z,78.53
2019-01-27T05:26:45.732Z,79.87
2019-01-27T05:29:14.789Z,80.43
2019-01-27T05:31:43.858Z,81.17
2019-01-27T05:34:12.939Z,79.47
2019-01-27T05:36:41.996Z,72.47
2019-01-27T05:39:11.056Z,77.73
2019-01-27T05:41:40.153Z,60.30
2019-01-27T05:44:09.490Z,72.77
2019-01-27T05:46:38.485Z,74.23
2019-01-27T05:49:07.883Z,85.70
2019-01-27T05:51:36.880Z,79.60
2019-01-27T05:54:05.944Z,77.60
2019-01-27T05:56:35.037Z,118.37
2019-01-27T05:59:04.101Z,99.80
2019-01-27T06:01:33.166Z,78.83
2019-01-27T06:04:02.270Z,86.40
2019-01-27T06:06:31.321Z,85.80
2019-01-27T06:09:00.373Z,78.77
2019-01-27T06:11:30.332Z,73.70
2019-01-27T06:13:59.382Z,68.90
2019-01-27T06:16:28.451Z,80.77
2019-01-27T06:18:57.541Z,62.20
2019-01-27T06:21:26.609Z,68.63
2019-01-27T06:23:55.659Z,65.40
2019-01-27T06:26:24.978Z,85.60
2019-01-27T06:28:54.030Z,69.13
2019-01-27T06:31:23.097Z,89.73
2019-01-27T06:33:52.190Z,100.43
2019-01-27T06:36:21.252Z,87.03
2019-01-27T06:38:50.311Z,73.67
2019-01-27T06:41:19.399Z,77.60
2019-01-27T06:43:48.468Z,63.33
2019-01-27T06:46:17.578Z,55.20
2019-01-27T06:48:46.681Z,83.90
2019-01-27T06:51:15.742Z,82.83
2019-01-27T06:53:44.797Z,101.57
2019-01-27T06:56:13.888Z,134.67
2019-01-27T07:01:28.121Z,88.40
2019-01-27T07:03:57.960Z,84.97
2019-01-27T07:06:27.027Z,80.00
2019-01-27T07:08:56.236Z,83.23
2019-01-27T07:11:25.288Z,94.70
2019-01-27T07:16:38.701Z,86.83
2019-01-27T07:19:07.782Z,140.97
2019-01-27T07:21:37.655Z,104.77
2019-01-27T07:24:07.521Z,91.50
2019-01-27T07:26:37.439Z,107.97
2019-01-27T07:29:06.504Z,93.60
2019-01-27T07:31:38.323Z,62.10
2019-01-27T07:34:12.804Z,61.13
2019-01-27T07:36:41.917Z,86.27
2019-01-27T07:39:13.800Z,78.03
2019-01-27T07:41:42.922Z,83.87
2019-01-27T07:44:11.974Z,79.37
2019-01-27T07:46:42.976Z,76.60
2019-01-27T07:49:18.003Z,83.33
2019-01-27T07:51:47.995Z,97.50
2019-01-27T07:54:21.993Z,88.03
2019-01-27T07:56:52.027Z,84.47
2019-01-27T07:59:26.166Z,104.03
2019-01-27T08:02:00.081Z,95.13
2019-01-27T08:04:29.157Z,73.40
2019-01-27T08:07:03.060Z,49.90
2019-01-27T08:09:32.942Z,90.23
2019-01-27T08:12:02.013Z,112.47
2019-01-27T08:14:32.790Z,134.93
2019-01-27T08:17:01.926Z,104.83
2019-01-27T08:22:16.779Z,97.70
2019-01-27T08:24:48.702Z,57.43
2019-01-27T08:27:19.765Z,176.20
2019-01-27T08:29:57.487Z,213.80
2019-01-27T08:32:25.662Z,110.70
2019-01-27T08:34:54.737Z,124.10
2019-01-27T08:37:29.637Z,101.30
2019-01-27T08:39:58.689Z,87.63
2019-01-27T08:42:27.758Z,88.07
2019-01-27T08:44:57.770Z,98.17
2019-01-27T08:47:26.821Z,97.67
2019-01-27T08:49:55.902Z,115.70
2019-01-27T08:52:25.008Z,96.43
2019-01-27T08:54:54.071Z,85.40
2019-01-27T08:57:23.132Z,99.97
2019-01-27T08:59:52.217Z,100.90
2019-01-27T09:02:21.273Z,113.07
2019-01-27T09:04:51.284Z,82.97
2019-01-27T09:07:22.307Z,95.07
2019-01-27T09:09:52.296Z,85.33
2019-01-27T09:12:27.386Z,100.73
2019-01-27T09:14:58.050Z,98.43
2019-01-27T09:17:29.902Z,87.70
2019-01-27T09:19:58.952Z,40.93
2019-01-27T09:22:28.828Z,78.67
2019-01-27T09:24:57.926Z,97.80
2019-01-27T09:27:26.985Z,99.23
2019-01-27T09:30:01.040Z,101.20
2019-01-27T09:32:30.105Z,95.97
2019-01-27T09:35:04.653Z,78.23
2019-01-27T09:37:35.627Z,91.50
2019-01-27T09:40:10.367Z,78.27
2019-01-27T09:42:44.933Z,125.83
2019-01-27T09:45:14.050Z,84.63
2019-01-27T09:47:48.827Z,59.00
2019-01-27T09:50:20.769Z,61.10
2019-01-27T09:52:52.786Z,60.57
2019-01-27T09:55:21.878Z,51.13
2019-01-27T09:57:53.777Z,88.50
2019-01-27T10:00:22.899Z,83.10
2019-01-27T10:02:55.739Z,102.10
2019-01-27T10:05:25.862Z,122.27
2019-01-27T10:08:00.412Z,102.00
2019-01-27T10:10:35.447Z,61.43
2019-01-27T10:13:05.513Z,103.50
2019-01-27T10:18:19.305Z,96.57
2019-01-27T10:20:52.381Z,109.27
2019-01-27T10:23:22.259Z,96.17
2019-01-27T10:25:51.350Z,105.50
2019-01-27T10:28:20.426Z,75.33
2019-01-27T10:30:49.496Z,141.63
2019-01-27T10:33:23.753Z,105.03
2019-01-27T10:35:52.802Z,99.30
2019-01-27T10:38:22.787Z,72.60
2019-01-27T10:40:51.863Z,69.90
2019-01-27T10:43:23.782Z,114.30
2019-01-27T10:45:52.867Z,64.60
2019-01-27T10:48:23.857Z,77.20
2019-01-27T10:50:57.912Z,97.27
2019-01-27T10:53:26.951Z,86.80
2019-01-27T10:55:57.865Z,99.40
2019-01-27T10:58:26.959Z,105.63
2019-01-27T11:00:57.952Z,68.93
2019-01-27T11:03:31.848Z,61.43
2019-01-27T11:06:02.828Z,92.83
2019-01-27T11:08:31.874Z,73.40
2019-01-27T11:11:01.806Z,85.13
2019-01-27T11:13:31.676Z,85.80
2019-01-27T11:16:02.566Z,70.90
2019-01-27T11:18:36.608Z,93.23
2019-01-27T11:21:05.667Z,96.73
2019-01-27T11:23:36.653Z,34.87
2019-01-27T11:26:05.800Z,93.27
2019-01-27T11:28:34.857Z,86.60
2019-01-27T11:31:07.789Z,96.47
2019-01-27T11:33:40.679Z,99.37
2019-01-27T11:36:15.306Z,75.40
2019-01-27T11:38:44.350Z,80.13
2019-01-27T11:41:14.205Z,88.47
2019-01-27T11:43:44.130Z,91.27
2019-01-27T11:46:17.190Z,83.30
2019-01-27T11:48:48.198Z,94.17
2019-01-27T11:51:18.402Z,90.57
2019-01-27T11:53:47.460Z,170.50
2019-01-27T11:56:16.564Z,219.93
2019-01-27T11:58:45.620Z,161.47
2019-01-27T12:01:14.670Z,151.23
2019-01-27T12:03:43.815Z,101.83
2019-01-27T12:06:12.881Z,169.33
2019-01-27T12:08:41.937Z,101.70
2019-01-27T12:11:11.023Z,128.17
2019-01-27T12:13:40.073Z,81.03
2019-01-27T12:16:09.955Z,82.80
2019-01-27T12:18:39.032Z,95.37
2019-01-27T12:21:08.096Z,109.80
2019-01-27T12:23:37.210Z,122.50
2019-01-27T12:26:06.336Z,154.00
2019-01-27T12:28:35.390Z,102.67
2019-01-27T12:31:04.445Z,122.20
2019-01-27T12:33:33.519Z,98.83
2019-01-27T12:36:02.566Z,92.67
2019-01-27T12:38:31.622Z,68.40
2019-01-27T12:41:00.805Z,86.30
2019-01-27T12:43:29.855Z,88.53
2019-01-27T12:45:58.924Z,115.60
2019-01-27T12:48:28.045Z,186.73
2019-01-27T12:50:57.110Z,123.93
2019-01-27T12:53:26.165Z,127.07
2019-01-27T12:55:55.250Z,99.43
2019-01-27T12:58:24.304Z,96.73
2019-01-27T13:00:53.394Z,122.10
2019-01-27T13:03:22.484Z,82.13
2019-01-27T13:05:51.545Z,124.33
2019-01-27T13:08:20.606Z,105.93
2019-01-27T13:10:49.743Z,79.97
2019-01-27T13:13:18.807Z,107.53
2019-01-27T13:15:47.863Z,62.47
2019-01-27T13:18:16.945Z,92.53
2019-01-27T13:21:02.284Z,114.07
2019-01-27T13:23:31.939Z,104.23
2019-01-27T13:26:01.001Z,94.77
2019-01-27T13:28:30.062Z,101.87
2019-01-27T13:30:59.187Z,101.27
2019-01-27T13:33:28.232Z,95.07
2019-01-27T13:35:57.282Z,95.87
2019-01-27T13:38:26.374Z,91.43
2019-01-27T13:40:55.476Z,91.20
2019-01-27T13:43:24.467Z,88.17
2019-01-27T13:45:53.545Z,93.73
2019-01-27T13:48:22.619Z,86.37
2019-01-27T13:50:51.668Z,84.80
2019-01-27T13:53:20.759Z,61.60
2019-01-27T13:55:49.815Z,76.27
2019-01-27T13:58:18.877Z,79.03
2019-01-27T14:00:47.953Z,85.83
2019-01-27T14:03:17.009Z,93.63
2019-01-27T14:05:46.058Z,93.80
2019-01-27T14:08:15.135Z,89.57
2019-01-27T14:10:44.189Z,82.97
2019-01-27T14:13:13.249Z,118.43
2019-01-27T14:15:42.585Z,90.23
2019-01-27T14:18:11.640Z,61.10
2019-01-27T14:20:40.695Z,94.50
2019-01-27T14:23:09.774Z,92.17
2019-01-27T14:25:38.836Z,114.83
2019-01-27T14:28:07.891Z,106.90
2019-01-27T14:30:37.800Z,109.33
2019-01-27T14:33:06.870Z,105.67
2019-01-27T14:35:35.930Z,68.27
2019-01-27T14:38:05.032Z,100.63
2019-01-27T14:40:34.096Z,107.27
2019-01-27T14:43:03.154Z,94.93
2019-01-27T14:45:32.251Z,90.03
2019-01-27T14:48:01.280Z,85.90
2019-01-27T14:50:30.358Z,73.67
2019-01-27T14:52:59.439Z,96.20
2019-01-27T14:55:28.497Z,101.80
2019-01-27T14:57:57.887Z,111.53
2019-01-27T15:00:26.662Z,134.80
2019-01-27T15:02:55.716Z,125.27
2019-01-27T15:05:24.778Z,107.47
2019-01-27T15:07:53.870Z,125.07
2019-01-27T15:10:22.945Z,137.57
2019-01-27T15:12:52.006Z,123.03
2019-01-27T15:15:21.128Z,125.23
2019-01-27T15:17:50.145Z,156.13
2019-01-27T15:20:25.880Z,133.70
2019-01-27T15:22:54.934Z,134.90
2019-01-27T15:25:23.989Z,151.50
2019-01-27T15:27:53.069Z,159.23
2019-01-27T15:30:25.060Z,116.70
2019-01-27T15:32:54.153Z,37.60
2019-01-27T15:35:23.193Z,152.73
2019-01-27T15:37:52.252Z,119.93
2019-01-27T15:40:21.368Z,117.60
2019-01-27T15:42:50.439Z,126.97
2019-01-27T15:45:19.494Z,175.83
2019-01-27T15:47:48.575Z,121.53
2019-01-27T15:50:18.455Z,114.90
2019-01-27T15:52:47.511Z,128.13
2019-01-27T15:55:16.593Z,117.33
2019-01-27T15:57:45.660Z,167.63
2019-01-27T16:00:15.518Z,105.80
2019-01-27T16:02:44.740Z,151.73
2019-01-27T16:05:13.802Z,135.40
2019-01-27T16:07:42.882Z,124.93
2019-01-27T16:10:11.972Z,152.37
2019-01-27T16:12:41.036Z,138.70
2019-01-27T16:15:10.923Z,135.83
2019-01-27T16:17:40.050Z,128.63
2019-01-27T16:20:09.113Z,150.70
2019-01-27T16:22:39.076Z,159.90
2019-01-27T16:25:08.191Z,146.60
2019-01-27T16:27:37.253Z,160.93
2019-01-27T16:30:07.139Z,172.70
2019-01-27T16:32:36.235Z,161.07
2019-01-27T16:35:05.300Z,153.67
2019-01-27T16:37:34.359Z,157.47
2019-01-27T16:40:03.469Z,168.87
2019-01-27T16:42:32.514Z,161.93
2019-01-27T16:45:01.570Z,178.23
2019-01-27T16:47:30.671Z,180.07
2019-01-27T16:49:59.788Z,149.87
2019-01-27T16:52:28.856Z,154.10
2019-01-27T16:54:57.956Z,205.17
2019-01-27T16:57:27.007Z,172.03
2019-01-27T16:59:56.061Z,168.50
2019-01-27T17:02:25.146Z,191.37
2019-01-27T17:04:54.214Z,162.80
2019-01-27T17:07:23.305Z,173.60
2019-01-27T17:09:52.511Z,154.67
2019-01-27T17:12:21.604Z,178.60
2019-01-27T17:14:50.622Z,157.10
2019-01-27T17:17:19.708Z,171.47
2019-01-27T17:19:48.779Z,162.33
2019-01-27T17:22:17.843Z,140.87
2019-01-27T17:24:46.920Z,173.43
2019-01-27T17:27:16.001Z,173.73
2019-01-27T17:29:45.059Z,169.97
2019-01-27T17:32:14.344Z,180.00
2019-01-27T17:34:43.429Z,142.37
2019-01-27T17:37:12.491Z,167.10
2019-01-27T17:39:41.598Z,162.43
2019-01-27T17:42:10.656Z,153.37
2019-01-27T17:44:39.724Z,141.13
2019-01-27T17:47:08.816Z,183.03
2019-01-27T17:49:37.871Z,165.83
2019-01-27T17:52:06.922Z,178.63
2019-01-27T17:54:36.045Z,166.20
2019-01-27T17:57:05.105Z,170.17
2019-01-27T17:59:34.162Z,169.33
2019-01-27T18:02:06.068Z,157.93
2019-01-27T18:04:35.109Z,170.93
2019-01-27T18:07:04.170Z,152.83
2019-01-27T18:09:37.283Z,163.53
2019-01-27T18:14:49.727Z,166.37
2019-01-27T18:17:18.780Z,176.73
2019-01-27T18:19:47.847Z,174.47
2019-01-27T18:22:16.946Z,182.07
2019-01-27T18:24:46.975Z,198.97
2019-01-27T18:27:16.030Z,185.47
2019-01-27T18:29:45.132Z,160.87
2019-01-27T18:32:14.206Z,177.13
2019-01-27T18:34:43.260Z,161.27
2019-01-27T18:37:12.355Z,176.27
2019-01-27T18:39:41.412Z,155.63
2019-01-27T18:42:10.503Z,168.43
2019-01-27T18:44:39.593Z,172.07
2019-01-27T18:47:08.635Z,184.47
2019-01-27T18:49:37.721Z,160.50
2019-01-27T18:52:06.814Z,188.73
2019-01-27T18:54:37.831Z,176.80
2019-01-27T18:57:06.884Z,157.30
2019-01-27T18:59:41.443Z,195.67
2019-01-27T19:02:13.169Z,161.00
2019-01-27T19:04:41.508Z,165.97
2019-01-27T19:07:13.466Z,188.40
2019-01-27T19:09:42.560Z,164.03
2019-01-27T19:12:15.786Z,150.43
2019-01-27T19:14:44.880Z,161.80
2019-01-27T19:17:19.379Z,191.60
2019-01-27T19:19:48.431Z,165.23
2019-01-27T19:22:18.419Z,178.60
2019-01-27T19:24:53.972Z,162.53
2019-01-27T19:27:24.781Z,190.97
2019-01-27T19:29:55.723Z,160.77
2019-01-27T19:32:24.783Z,165.63
2019-01-27T19:34:55.784Z,168.67
2019-01-27T19:37:28.305Z,168.13
2019-01-27T19:40:01.112Z,189.20
2019-01-27T19:42:30.256Z,202.93
2019-01-27T19:45:05.191Z,242.73
2019-01-27T19:47:35.861Z,242.33
2019-01-27T19:50:04.918Z,174.07
2019-01-27T19:52:37.943Z,193.53
2019-01-27T19:55:08.811Z,149.30
2019-01-27T19:57:43.454Z,236.23
2019-01-27T20:00:14.006Z,204.50
2019-01-27T20:02:48.588Z,194.40
2019-01-27T20:05:18.595Z,200.07
2019-01-27T20:07:47.648Z,216.80
2019-01-27T20:10:16.755Z,187.77
2019-01-27T20:12:46.660Z,188.07
2019-01-27T20:15:16.554Z,199.50
2019-01-27T20:17:48.695Z,177.37
2019-01-27T20:20:23.214Z,180.27
2019-01-27T20:22:57.783Z,201.43
2019-01-27T20:25:26.869Z,170.10
2019-01-27T20:27:56.761Z,182.80
2019-01-27T20:30:25.837Z,187.40
2019-01-27T20:32:55.865Z,145.33
2019-01-27T20:35:27.903Z,170.93
2019-01-27T20:38:00.783Z,184.63
2019-01-27T20:40:29.859Z,170.43
2019-01-27T20:42:59.733Z,193.17
2019-01-27T20:45:31.721Z,191.70
2019-01-27T20:48:06.275Z,179.57
2019-01-27T20:53:19.780Z,165.10
2019-01-27T20:55:48.834Z,226.77
2019-01-27T20:58:17.898Z,156.00
2019-01-27T21:00:46.961Z,152.00
2019-01-27T21:03:21.036Z,153.00
2019-01-27T21:05:52.926Z,152.20
2019-01-27T21:08:22.054Z,144.93
2019-01-27T21:10:52.074Z,139.23
2019-01-27T21:13:26.135Z,137.27
2019-01-27T21:15:59.151Z,131.43
2019-01-27T21:18:29.230Z,141.50
2019-01-27T21:20:58.284Z,119.07
2019-01-27T21:23:27.343Z,135.93
2019-01-27T21:25:56.449Z,147.87
2019-01-27T21:28:25.503Z,128.90
2019-01-27T21:30:54.573Z,137.33
2019-01-27T21:33:23.665Z,95.83
2019-01-27T21:35:52.720Z,114.40
2019-01-27T21:38:21.788Z,107.47
2019-01-27T21:40:50.880Z,121.10
2019-01-27T21:43:19.942Z,123.10
2019-01-27T21:45:49.852Z,117.43
2019-01-27T21:48:18.956Z,139.37
2019-01-27T21:50:48.011Z,110.43
2019-01-27T21:53:17.074Z,94.07
2019-01-27T21:55:46.201Z,109.73
2019-01-27T21:58:15.259Z,96.70
2019-01-27T22:00:44.327Z,119.50
2019-01-27T22:03:13.461Z,103.53
2019-01-27T22:05:42.526Z,105.47
2019-01-27T22:08:11.589Z,110.87
2019-01-27T22:10:40.703Z,85.07
2019-01-27T22:13:09.738Z,97.60
2019-01-27T22:15:38.788Z,82.30
2019-01-27T22:18:07.888Z,79.83
2019-01-27T22:20:36.948Z,85.60
2019-01-27T22:23:06.188Z,70.03
2019-01-27T22:25:35.120Z,80.67
2019-01-27T22:28:04.173Z,93.63
2019-01-27T22:30:33.223Z,88.13
2019-01-27T22:33:02.435Z,77.60
2019-01-27T22:35:31.486Z,90.67
2019-01-27T22:38:00.540Z,80.37
2019-01-27T22:40:29.674Z,91.87
2019-01-27T22:42:58.706Z,81.30
2019-01-27T22:45:27.760Z,82.53
2019-01-27T22:47:56.846Z,83.07
2019-01-27T22:50:25.898Z,79.90
2019-01-27T22:52:54.948Z,76.40
2019-01-27T22:55:24.047Z,81.77
2019-01-27T22:57:53.114Z,88.37
2019-01-27T23:00:23.096Z,86.37
2019-01-27T23:02:52.173Z,88.50
2019-01-27T23:05:21.328Z,87.60
2019-01-27T23:07:50.391Z,87.77
2019-01-27T23:10:19.459Z,98.60
2019-01-27T23:12:48.509Z,92.47
2019-01-27T23:15:17.554Z,87.03
2019-01-27T23:17:46.666Z,85.70
2019-01-27T23:20:15.722Z,81.20
2019-01-27T23:22:44.770Z,78.00
2019-01-27T23:25:13.856Z,84.23
2019-01-27T23:27:42.906Z,79.03
2019-01-27T23:30:11.961Z,71.97
2019-01-27T23:32:41.041Z,81.50
2019-01-27T23:35:10.097Z,75.73
2019-01-27T23:37:39.144Z,75.20
2019-01-27T23:40:08.259Z,68.40
2019-01-27T23:42:37.305Z,71.80
2019-01-27T23:45:06.364Z,69.73
2019-01-27T23:47:35.430Z,68.67
2019-01-27T23:50:04.492Z,70.73
2019-01-27T23:52:33.548Z,69.53
2019-01-27T23:55:02.630Z,74.87
2019-01-27T23:57:31.674Z,73.23
